createdAt,value
2023-03-17T00:01:00.179Z,-3.00
2023-03-17T00:06:04.934Z,-3.00
2023-03-17T00:11:16.230Z,-3.10
2023-03-17T00:16:25.546Z,-3.10
2023-03-17T00:21:31.028Z,-3.10
2023-03-17T00:26:33.764Z,-3.30
2023-03-17T00:31:36.774Z,-3.30
2023-03-17T00:36:39.471Z,-3.50
2023-03-17T00:41:42.708Z,-3.50
2023-03-17T00:46:46.677Z,-3.50
2023-03-17T00:51:50.042Z,-3.60
2023-03-17T00:56:52.876Z,-3.60
2023-03-17T01:01:56.546Z,-3.80
2023-03-17T01:06:59.493Z,-3.80
2023-03-17T01:12:02.095Z,-3.70
2023-03-17T01:17:06.416Z,-3.70
2023-03-17T01:22:09.941Z,-3.80
2023-03-17T01:27:12.718Z,-3.70
2023-03-17T01:32:15.232Z,-3.80
2023-03-17T01:37:17.712Z,-3.90
2023-03-17T01:42:21.103Z,-3.90
2023-03-17T01:47:26.504Z,-3.80
2023-03-17T01:52:29.787Z,-3.90
2023-03-17T01:57:41.533Z,-3.70
2023-03-17T02:02:50.453Z,-3.80
2023-03-17T02:07:54.689Z,-3.90
2023-03-17T02:13:05.946Z,-3.90
2023-03-17T02:18:10.189Z,-4.10
2023-03-17T02:23:17.119Z,-4.20
2023-03-17T02:28:26.345Z,-4.20
2023-03-17T02:33:29.138Z,-4.30
2023-03-17T02:38:32.156Z,-4.10
2023-03-17T02:43:37.513Z,-4.10
2023-03-17T02:48:40.896Z,-3.90
2023-03-17T02:53:43.558Z,-3.90
2023-03-17T02:58:46.612Z,-3.70
2023-03-17T03:03:49.309Z,-3.60
2023-03-17T03:08:52.415Z,-3.60
2023-03-17T03:13:55.070Z,-3.50
2023-03-17T03:18:57.742Z,-3.50
2023-03-17T03:24:00.523Z,-3.40
2023-03-17T03:29:03.399Z,-3.40
2023-03-17T03:34:06.078Z,-3.20
2023-03-17T03:39:11.009Z,-3.00
2023-03-17T03:44:15.119Z,-2.80
2023-03-17T03:49:17.908Z,-2.80
2023-03-17T03:54:20.706Z,-2.60
2023-03-17T03:59:23.294Z,-2.40
2023-03-17T04:04:26.128Z,-1.80
2023-03-17T04:09:28.705Z,-1.60
2023-03-17T04:14:31.428Z,-1.60
2023-03-17T04:19:34.304Z,-1.30
2023-03-17T04:24:37.325Z,-1.60
2023-03-17T04:29:39.855Z,-1.40
2023-03-17T04:34:43.094Z,-1.70
2023-03-17T04:39:45.743Z,-2.10
2023-03-17T04:44:48.518Z,-2.50
2023-03-17T04:49:51.165Z,-2.70
2023-03-17T04:54:54.018Z,-2.80
2023-03-17T04:59:57.874Z,-2.60
2023-03-17T05:05:00.589Z,-2.30
2023-03-17T05:10:03.164Z,-2.30
2023-03-17T05:15:06.868Z,-0.50
2023-03-17T05:20:10.908Z,-0.10
2023-03-17T05:25:13.498Z,-0.10
2023-03-17T05:30:16.188Z,-0.70
2023-03-17T05:35:19.224Z,-1.00
2023-03-17T05:40:23.816Z,-1.60
2023-03-17T05:45:26.924Z,-1.80
2023-03-17T05:50:29.962Z,-2.10
2023-03-17T05:55:32.791Z,-2.20
2023-03-17T06:00:35.865Z,-2.10
2023-03-17T06:05:38.810Z,-2.20
2023-03-17T06:10:42.731Z,-2.00
2023-03-17T06:15:48.382Z,-1.70
2023-03-17T06:20:51.393Z,-1.30
2023-03-17T06:25:54.012Z,-0.20
2023-03-17T06:30:56.819Z,0.60
2023-03-17T06:36:00.307Z,1.50
2023-03-17T06:41:03.617Z,1.90
2023-03-17T06:46:07.720Z,2.50
2023-03-17T06:51:11.446Z,2.80
2023-03-17T06:56:28.892Z,2.90
2023-03-17T07:01:32.669Z,3.30
2023-03-17T07:06:35.708Z,3.50
2023-03-17T07:11:39.474Z,3.90
2023-03-17T07:16:42.152Z,4.30
2023-03-17T07:21:46.907Z,4.70
2023-03-17T07:26:50.079Z,5.50
2023-03-17T07:31:53.379Z,6.00
2023-03-17T07:36:56.306Z,6.10
2023-03-17T07:41:59.380Z,6.50
2023-03-17T07:47:02.108Z,6.80
2023-03-17T07:52:05.418Z,7.00
2023-03-17T07:57:08.196Z,7.20
2023-03-17T08:02:16.868Z,7.70
2023-03-17T08:07:19.865Z,7.90
2023-03-17T08:12:22.458Z,8.30
2023-03-17T08:17:27.641Z,8.40
2023-03-17T08:22:30.622Z,8.40
2023-03-17T08:27:34.046Z,8.70
2023-03-17T08:32:37.279Z,8.70
2023-03-17T08:37:40.084Z,9.30
2023-03-17T08:42:43.382Z,10.00
2023-03-17T08:47:47.961Z,10.50
2023-03-17T08:52:52.256Z,11.00
2023-03-17T08:57:54.998Z,11.50
2023-03-17T09:02:58.751Z,12.40
2023-03-17T09:08:01.509Z,12.20
2023-03-17T09:13:05.096Z,12.30
2023-03-17T09:18:09.337Z,12.70
2023-03-17T09:23:13.091Z,13.20
2023-03-17T09:28:16.305Z,12.40
2023-03-17T09:33:19.975Z,13.20
2023-03-17T09:38:24.058Z,13.30
2023-03-17T09:43:41.798Z,12.80
2023-03-17T09:48:55.556Z,14.40
2023-03-17T09:54:03.693Z,13.60
2023-03-17T09:59:15.654Z,13.90
2023-03-17T10:04:19.052Z,13.80
2023-03-17T10:09:37.879Z,13.60
2023-03-17T10:14:43.690Z,14.20
2023-03-17T10:20:01.404Z,14.80
2023-03-17T10:25:17.320Z,14.10
2023-03-17T10:30:23.787Z,14.90
2023-03-17T10:35:27.000Z,15.70
2023-03-17T10:40:31.969Z,14.20
2023-03-17T10:45:44.087Z,14.10
2023-03-17T10:50:49.587Z,14.40
2023-03-17T10:55:53.645Z,15.70
2023-03-17T11:01:20.517Z,15.60
2023-03-17T11:06:34.496Z,16.10
2023-03-17T11:11:46.979Z,14.00
2023-03-17T11:17:00.427Z,14.00
2023-03-17T11:22:14.451Z,14.40
2023-03-17T11:27:36.474Z,14.40
2023-03-17T11:32:56.764Z,16.50
2023-03-17T11:38:14.281Z,16.30
2023-03-17T11:43:29.691Z,15.40
2023-03-17T11:48:55.398Z,16.20
2023-03-17T11:54:18.645Z,17.90
2023-03-17T11:59:37.931Z,16.00
2023-03-17T12:05:06.164Z,15.40
2023-03-17T12:10:36.684Z,15.40
2023-03-17T12:15:45.835Z,15.40
2023-03-17T12:21:01.935Z,14.80
2023-03-17T12:26:11.378Z,15.50
2023-03-17T12:31:25.653Z,15.20
2023-03-17T12:36:29.702Z,15.10
2023-03-17T12:42:11.241Z,15.50
2023-03-17T12:47:19.943Z,15.90
2023-03-17T12:52:35.001Z,15.30
2023-03-17T12:57:44.059Z,16.00
2023-03-17T13:02:51.265Z,15.60
2023-03-17T13:07:57.502Z,16.10
2023-03-17T13:13:23.597Z,14.20
2023-03-17T13:18:35.688Z,15.60
2023-03-17T13:23:53.720Z,16.40
2023-03-17T13:29:03.644Z,16.50
2023-03-17T13:34:28.422Z,15.60
2023-03-17T13:40:10.844Z,16.40
2023-03-17T13:45:37.763Z,15.30
2023-03-17T13:50:41.232Z,15.90
2023-03-17T13:56:23.435Z,15.80
2023-03-17T14:01:28.862Z,14.60
2023-03-17T14:06:32.144Z,14.80
2023-03-17T14:11:42.220Z,14.20
2023-03-17T14:17:02.650Z,14.90
2023-03-17T14:22:21.099Z,14.50
2023-03-17T14:27:25.286Z,14.20
2023-03-17T14:32:28.028Z,13.90
2023-03-17T14:37:30.929Z,13.40
2023-03-17T14:42:33.851Z,13.30
2023-03-17T14:47:45.865Z,12.90
2023-03-17T14:52:50.702Z,13.10
2023-03-17T14:57:53.861Z,13.40
2023-03-17T15:02:59.294Z,14.00
2023-03-17T15:08:02.868Z,13.80
2023-03-17T15:13:07.426Z,13.30
2023-03-17T15:18:15.765Z,13.40
2023-03-17T15:23:25.355Z,13.10
2023-03-17T15:28:32.132Z,13.10
2023-03-17T15:33:41.601Z,12.90
2023-03-17T15:38:45.162Z,12.70
2023-03-17T15:43:48.283Z,12.30
2023-03-17T15:48:51.343Z,12.20
2023-03-17T15:53:53.978Z,11.90
2023-03-17T15:58:56.937Z,11.70
2023-03-17T16:03:59.666Z,11.50
2023-03-17T16:09:02.580Z,11.30
2023-03-17T16:14:05.386Z,10.90
2023-03-17T16:19:16.236Z,10.70
2023-03-17T16:24:22.105Z,10.30
2023-03-17T16:29:24.821Z,10.20
2023-03-17T16:34:27.661Z,10.00
2023-03-17T16:39:30.957Z,9.80
2023-03-17T16:44:33.776Z,9.60
2023-03-17T16:49:36.628Z,9.40
2023-03-17T16:54:40.964Z,9.20
2023-03-17T16:59:43.833Z,9.00
2023-03-17T17:04:46.632Z,8.90
2023-03-17T17:09:49.284Z,8.60
2023-03-17T17:14:51.973Z,8.40
2023-03-17T17:19:54.726Z,8.30
2023-03-17T17:24:57.488Z,8.20
2023-03-17T17:30:00.689Z,8.10
2023-03-17T17:35:03.723Z,7.90
2023-03-17T17:40:09.583Z,7.80
2023-03-17T17:45:12.807Z,7.60
2023-03-17T17:50:27.711Z,7.50
2023-03-17T17:55:30.490Z,7.40
2023-03-17T18:00:33.744Z,7.20
2023-03-17T18:05:37.138Z,7.10
2023-03-17T18:10:40.250Z,6.90
2023-03-17T18:15:43.268Z,6.90
2023-03-17T18:20:46.357Z,6.80
2023-03-17T18:25:49.806Z,6.60
2023-03-17T18:30:53.311Z,6.50
2023-03-17T18:35:56.344Z,6.50
2023-03-17T18:40:59.342Z,6.30
2023-03-17T18:46:02.125Z,6.20
2023-03-17T18:51:06.126Z,6.20
2023-03-17T18:56:09.518Z,6.10
2023-03-17T19:01:12.417Z,6.10
2023-03-17T19:06:18.074Z,5.90
2023-03-17T19:11:21.914Z,5.80
2023-03-17T19:16:29.331Z,5.60
2023-03-17T19:21:32.990Z,5.60
2023-03-17T19:26:35.790Z,5.60
2023-03-17T19:31:45.457Z,5.60
2023-03-17T19:36:48.811Z,5.70
2023-03-17T19:41:55.463Z,5.70
2023-03-17T19:46:58.119Z,5.60
2023-03-17T19:52:01.757Z,5.60
2023-03-17T19:57:05.658Z,5.50
2023-03-17T20:02:08.905Z,5.30
2023-03-17T20:07:12.233Z,5.20
2023-03-17T20:12:15.581Z,5.20
2023-03-17T20:17:18.559Z,5.10
2023-03-17T20:22:21.580Z,5.00
2023-03-17T20:27:25.080Z,4.90
2023-03-17T20:32:28.115Z,4.80
2023-03-17T20:37:31.170Z,4.80
2023-03-17T20:42:34.212Z,4.80
2023-03-17T20:47:37.744Z,4.70
2023-03-17T20:52:42.205Z,4.70
2023-03-17T20:57:49.775Z,4.50
2023-03-17T21:02:53.461Z,4.50
2023-03-17T21:07:57.145Z,4.40
2023-03-17T21:12:59.780Z,4.30
2023-03-17T21:18:02.637Z,4.10
2023-03-17T21:23:08.061Z,3.90
2023-03-17T21:28:11.434Z,3.80
2023-03-17T21:33:14.243Z,3.80
2023-03-17T21:38:17.195Z,3.70
2023-03-17T21:43:20.041Z,3.60
2023-03-17T21:48:22.813Z,3.50
2023-03-17T21:53:26.154Z,3.20
2023-03-17T21:58:28.836Z,2.70
2023-03-17T22:03:32.542Z,2.20
2023-03-17T22:08:35.840Z,1.90
2023-03-17T22:13:38.484Z,1.90
2023-03-17T22:18:42.050Z,1.90
2023-03-17T22:23:44.611Z,1.60
2023-03-17T22:28:48.597Z,1.40
2023-03-17T22:33:53.474Z,1.50
2023-03-17T22:38:57.184Z,1.70
2023-03-17T22:43:59.672Z,1.80
2023-03-17T22:49:02.578Z,1.80
2023-03-17T22:54:05.252Z,1.50
2023-03-17T22:59:07.861Z,1.30
2023-03-17T23:04:10.569Z,1.10
2023-03-17T23:09:13.725Z,1.00
2023-03-17T23:14:16.506Z,0.80
2023-03-17T23:19:19.768Z,0.50
2023-03-17T23:24:22.423Z,0.20
2023-03-17T23:29:25.138Z,-0.10
2023-03-17T23:34:27.794Z,-0.20
2023-03-17T23:39:30.616Z,-0.20
2023-03-17T23:44:33.425Z,-0.20
2023-03-17T23:49:36.604Z,-0.20
2023-03-17T23:54:40.005Z,0.00
2023-03-17T23:59:43.572Z,-0.30
